createdAt,value
2018-03-04T00:00:59.894Z,28.67
2018-03-04T00:03:27.679Z,31.10
2018-03-04T00:05:55.428Z,29.57
2018-03-04T00:08:23.992Z,30.57
2018-03-04T00:10:51.749Z,28.93
2018-03-04T00:13:19.498Z,31.67
2018-03-04T00:15:47.282Z,28.83
2018-03-04T00:18:15.109Z,27.03
2018-03-04T00:20:42.899Z,29.30
2018-03-04T00:23:10.692Z,28.70
2018-03-04T00:25:38.439Z,30.00
2018-03-04T00:28:06.171Z,30.30
2018-03-04T00:30:34.007Z,27.57
2018-03-04T00:33:01.770Z,27.23
2018-03-04T00:35:29.521Z,28.40
2018-03-04T00:37:57.252Z,28.00
2018-03-04T00:40:25.044Z,28.50
2018-03-04T00:42:52.838Z,28.03
2018-03-04T00:45:21.414Z,28.73
2018-03-04T00:47:49.224Z,28.20
2018-03-04T00:50:17.094Z,32.17
2018-03-04T00:52:44.838Z,30.87
2018-03-04T00:55:13.414Z,30.27
2018-03-04T00:57:41.140Z,29.27
2018-03-04T01:00:23.686Z,30.77
2018-03-04T01:02:51.466Z,32.10
2018-03-04T01:05:19.279Z,29.73
2018-03-04T01:07:47.021Z,30.70
2018-03-04T01:10:14.837Z,33.50
2018-03-04T01:12:42.592Z,35.03
2018-03-04T01:15:10.321Z,33.23
2018-03-04T01:17:38.060Z,33.00
2018-03-04T01:20:05.795Z,34.17
2018-03-04T01:22:33.582Z,33.40
2018-03-04T01:25:01.393Z,36.43
2018-03-04T01:27:29.121Z,33.20
2018-03-04T01:29:56.921Z,33.70
2018-03-04T01:32:24.642Z,32.80
2018-03-04T01:34:52.393Z,34.97
2018-03-04T01:37:20.153Z,34.57
2018-03-04T01:39:47.934Z,32.77
2018-03-04T01:42:15.781Z,32.50
2018-03-04T01:44:43.527Z,33.57
2018-03-04T01:47:11.285Z,32.23
2018-03-04T01:49:39.059Z,32.97
2018-03-04T01:52:06.799Z,32.40
2018-03-04T01:54:35.294Z,32.00
2018-03-04T01:57:03.078Z,30.13
2018-03-04T01:59:30.872Z,29.20
2018-03-04T02:01:58.661Z,29.10
2018-03-04T02:04:26.455Z,28.47
2018-03-04T02:06:55.010Z,25.80
2018-03-04T02:09:23.554Z,27.43
2018-03-04T02:11:51.286Z,26.13
2018-03-04T02:14:19.835Z,24.70
2018-03-04T02:16:47.602Z,24.00
2018-03-04T02:19:15.319Z,24.23
2018-03-04T02:21:43.054Z,22.10
2018-03-04T02:24:10.802Z,22.67
2018-03-04T02:26:38.601Z,22.13
2018-03-04T02:29:06.393Z,24.30
2018-03-04T02:31:34.171Z,24.40
2018-03-04T02:34:01.908Z,23.00
2018-03-04T02:36:29.756Z,23.40
2018-03-04T02:38:57.499Z,23.57
2018-03-04T02:41:25.245Z,21.80
2018-03-04T02:43:53.049Z,23.27
2018-03-04T02:46:20.847Z,21.47
2018-03-04T02:48:48.583Z,20.77
2018-03-04T02:51:16.418Z,24.00
2018-03-04T02:53:44.158Z,23.33
2018-03-04T02:56:11.926Z,23.10
2018-03-04T02:58:39.749Z,23.70
2018-03-04T03:01:07.538Z,21.30
2018-03-04T03:03:36.046Z,21.80
2018-03-04T03:06:03.803Z,23.63
2018-03-04T03:08:31.530Z,23.07
2018-03-04T03:10:59.297Z,22.77
2018-03-04T03:13:27.019Z,23.67
2018-03-04T03:15:54.828Z,22.43
2018-03-04T03:18:22.551Z,23.57
2018-03-04T03:20:50.322Z,25.07
2018-03-04T03:23:18.130Z,22.87
2018-03-04T03:25:45.948Z,23.67
2018-03-04T03:28:13.704Z,25.50
2018-03-04T03:30:41.428Z,23.80
2018-03-04T03:33:09.160Z,23.33
2018-03-04T03:35:36.940Z,22.40
2018-03-04T03:38:04.705Z,24.50
2018-03-04T03:40:32.429Z,25.60
2018-03-04T03:43:00.930Z,24.27
2018-03-04T03:45:28.720Z,21.63
2018-03-04T03:47:56.506Z,24.60
2018-03-04T03:50:24.258Z,22.90
2018-03-04T03:52:52.031Z,24.10
2018-03-04T03:55:19.768Z,24.37
2018-03-04T03:57:47.491Z,22.30
2018-03-04T04:00:15.294Z,24.73
2018-03-04T04:02:43.091Z,24.57
2018-03-04T04:05:10.926Z,23.93
2018-03-04T04:07:38.652Z,22.77
2018-03-04T04:10:06.420Z,22.17
2018-03-04T04:12:34.217Z,23.10
2018-03-04T04:15:01.961Z,22.47
2018-03-04T04:17:29.767Z,22.93
2018-03-04T04:19:57.520Z,23.50
2018-03-04T04:22:25.249Z,21.47
2018-03-04T04:24:52.997Z,22.40
2018-03-04T04:27:20.804Z,19.60
2018-03-04T04:29:48.544Z,20.60
2018-03-04T04:32:16.299Z,21.20
2018-03-04T04:34:44.037Z,20.60
2018-03-04T04:37:11.760Z,20.00
2018-03-04T04:39:39.535Z,22.33
2018-03-04T04:42:07.339Z,23.27
2018-03-04T04:44:35.093Z,23.10
2018-03-04T04:47:02.897Z,23.70
2018-03-04T04:49:30.664Z,22.47
2018-03-04T04:51:59.179Z,22.40
2018-03-04T04:54:27.683Z,23.93
2018-03-04T04:56:55.461Z,21.57
2018-03-04T04:59:23.200Z,22.70
2018-03-04T05:01:50.994Z,24.70
2018-03-04T05:04:18.725Z,24.10
2018-03-04T05:06:46.475Z,22.03
2018-03-04T05:09:14.223Z,22.67
2018-03-04T05:11:42.011Z,22.70
2018-03-04T05:14:09.762Z,22.40
2018-03-04T05:16:37.505Z,22.60
2018-03-04T05:19:05.288Z,23.73
2018-03-04T05:21:33.064Z,20.83
2018-03-04T05:24:01.142Z,21.43
2018-03-04T05:26:28.929Z,20.50
2018-03-04T05:28:56.728Z,22.50
2018-03-04T05:31:24.442Z,21.97
2018-03-04T05:33:52.213Z,22.03
2018-03-04T05:36:19.941Z,22.03
2018-03-04T05:38:47.692Z,22.90
2018-03-04T05:41:15.432Z,21.40
2018-03-04T05:43:43.993Z,24.30
2018-03-04T05:46:11.797Z,23.83
2018-03-04T05:48:39.543Z,23.47
2018-03-04T05:51:07.320Z,24.33
2018-03-04T05:53:35.133Z,23.20
2018-03-04T05:56:02.882Z,24.93
2018-03-04T05:58:30.738Z,23.83
2018-03-04T06:00:59.251Z,25.37
2018-03-04T06:03:27.062Z,24.90
2018-03-04T06:05:54.801Z,25.03
2018-03-04T06:08:22.576Z,24.60
2018-03-04T06:10:50.313Z,25.10
2018-03-04T06:13:18.041Z,26.67
2018-03-04T06:15:45.861Z,24.10
2018-03-04T06:18:13.655Z,24.60
2018-03-04T06:20:41.403Z,24.40
2018-03-04T06:23:10.058Z,25.97
2018-03-04T06:25:37.787Z,25.53
2018-03-04T06:28:05.516Z,26.07
2018-03-04T06:30:33.313Z,24.40
2018-03-04T06:33:01.040Z,25.57
2018-03-04T06:35:28.786Z,25.20
2018-03-04T06:37:56.575Z,26.70
2018-03-04T06:40:24.411Z,29.20
2018-03-04T06:42:52.141Z,30.03
2018-03-04T06:45:19.872Z,32.47
2018-03-04T06:47:47.614Z,33.70
2018-03-04T06:50:15.359Z,35.40
2018-03-04T06:52:43.869Z,29.60
2018-03-04T06:55:11.581Z,26.63
2018-03-04T06:57:39.370Z,24.30
2018-03-04T07:00:07.110Z,24.13
2018-03-04T07:02:34.820Z,27.97
2018-03-04T07:05:03.317Z,28.40
2018-03-04T07:07:31.084Z,29.40
2018-03-04T07:09:58.849Z,29.97
2018-03-04T07:12:26.681Z,30.97
2018-03-04T07:14:54.459Z,33.33
2018-03-04T07:17:22.230Z,34.30
2018-03-04T07:19:49.970Z,33.10
2018-03-04T07:22:17.730Z,30.87
2018-03-04T07:24:45.457Z,32.33
2018-03-04T07:27:13.204Z,32.13
2018-03-04T07:29:41.029Z,30.57
2018-03-04T07:32:08.783Z,31.80
2018-03-04T07:34:36.584Z,27.17
2018-03-04T07:37:04.366Z,29.63
2018-03-04T07:39:33.488Z,30.23
2018-03-04T07:42:01.226Z,29.77
2018-03-04T07:44:29.790Z,28.93
2018-03-04T07:46:57.544Z,30.10
2018-03-04T07:49:25.277Z,27.33
2018-03-04T07:51:53.020Z,31.47
2018-03-04T07:54:20.809Z,31.77
2018-03-04T07:56:48.533Z,34.17
2018-03-04T07:59:16.251Z,34.20
2018-03-04T08:01:44.092Z,34.40
2018-03-04T08:04:12.109Z,33.87
2018-03-04T08:06:39.867Z,29.40
2018-03-04T08:09:07.617Z,31.80
2018-03-04T08:11:35.393Z,26.40
2018-03-04T08:14:03.153Z,24.90
2018-03-04T08:16:30.976Z,26.43
2018-03-04T08:18:58.822Z,22.07
2018-03-04T08:21:26.560Z,25.87
2018-03-04T08:23:54.833Z,28.27
2018-03-04T08:26:34.736Z,26.03
2018-03-04T08:29:02.525Z,25.30
2018-03-04T08:31:30.382Z,27.47
2018-03-04T08:33:58.131Z,27.27
2018-03-04T08:36:25.977Z,25.43
2018-03-04T08:38:53.713Z,28.20
2018-03-04T08:41:21.452Z,31.53
2018-03-04T08:43:49.996Z,30.80
2018-03-04T08:46:17.788Z,26.20
2018-03-04T08:48:45.595Z,30.03
2018-03-04T08:51:13.392Z,27.60
2018-03-04T08:53:41.173Z,29.17
2018-03-04T08:56:08.934Z,27.27
2018-03-04T08:58:36.741Z,27.87
2018-03-04T09:01:05.301Z,27.23
2018-03-04T09:03:33.060Z,28.87
2018-03-04T09:06:00.809Z,29.03
2018-03-04T09:08:28.649Z,25.60
2018-03-04T09:10:56.396Z,25.47
2018-03-04T09:13:24.962Z,27.47
2018-03-04T09:15:53.459Z,26.67
2018-03-04T09:18:21.975Z,26.90
2018-03-04T09:21:06.924Z,28.43
2018-03-04T09:23:34.883Z,25.57
2018-03-04T09:26:06.150Z,31.23
2018-03-04T09:28:35.466Z,27.20
2018-03-04T09:31:03.200Z,28.63
2018-03-04T09:33:30.927Z,27.87
2018-03-04T09:35:58.818Z,26.20
2018-03-04T09:38:26.557Z,25.97
2018-03-04T09:40:54.429Z,27.80
2018-03-04T09:43:22.238Z,27.00
2018-03-04T09:45:50.826Z,28.20
2018-03-04T09:48:18.580Z,23.77
2018-03-04T09:50:46.310Z,25.93
2018-03-04T09:53:14.095Z,25.87
2018-03-04T09:55:41.822Z,27.60
2018-03-04T09:58:09.552Z,24.83
2018-03-04T10:00:37.323Z,23.43
2018-03-04T10:03:05.073Z,25.90
2018-03-04T10:05:32.879Z,26.87
2018-03-04T10:08:00.638Z,26.13
2018-03-04T10:10:28.586Z,26.93
2018-03-04T10:12:57.140Z,26.60
2018-03-04T10:15:24.874Z,26.07
2018-03-04T10:17:52.610Z,26.50
2018-03-04T10:20:20.425Z,24.70
2018-03-04T10:22:48.155Z,23.03
2018-03-04T10:25:15.924Z,23.30
2018-03-04T10:27:43.683Z,22.67
2018-03-04T10:30:11.472Z,24.13
2018-03-04T10:32:39.235Z,26.27
2018-03-04T10:35:07.029Z,23.87
2018-03-04T10:37:34.818Z,26.23
2018-03-04T10:40:02.670Z,26.63
2018-03-04T10:42:30.592Z,25.17
2018-03-04T10:44:58.520Z,24.83
2018-03-04T10:47:26.579Z,23.10
2018-03-04T10:49:54.405Z,22.43
2018-03-04T10:52:22.159Z,22.60
2018-03-04T10:54:50.722Z,24.53
2018-03-04T10:57:18.630Z,24.63
2018-03-04T10:59:46.663Z,27.33
2018-03-04T11:15:38.458Z,28.00
2018-03-04T11:18:06.332Z,26.20
2018-03-04T11:20:34.085Z,28.63
2018-03-04T11:23:01.828Z,28.63
2018-03-04T11:25:29.537Z,31.53
2018-03-04T11:27:57.326Z,31.37
2018-03-04T11:30:25.088Z,33.90
2018-03-04T11:32:52.852Z,31.27
2018-03-04T11:35:20.642Z,30.80
2018-03-04T11:37:48.437Z,33.67
2018-03-04T11:40:16.221Z,33.07
2018-03-04T11:42:43.966Z,30.57
2018-03-04T11:45:11.751Z,31.40
2018-03-04T11:47:39.554Z,32.10
2018-03-04T11:50:07.326Z,27.80
2018-03-04T11:52:35.105Z,29.67
2018-03-04T11:55:02.902Z,29.53
2018-03-04T11:57:30.657Z,32.07
2018-03-04T11:59:58.464Z,27.33
2018-03-04T12:02:26.210Z,26.70
2018-03-04T12:04:54.032Z,24.37
2018-03-04T12:07:21.840Z,26.80
2018-03-04T12:09:49.595Z,26.07
2018-03-04T12:12:17.397Z,27.20
2018-03-04T12:14:45.163Z,27.93
2018-03-04T12:17:12.886Z,28.77
2018-03-04T12:19:40.615Z,30.90
2018-03-04T12:22:08.356Z,29.87
2018-03-04T12:24:36.142Z,28.97
2018-03-04T12:27:03.945Z,28.50
2018-03-04T12:29:31.685Z,26.27
2018-03-04T12:31:59.479Z,29.27
2018-03-04T12:34:27.517Z,27.80
2018-03-04T12:36:55.311Z,27.30
2018-03-04T12:39:23.060Z,29.63
2018-03-04T12:41:50.874Z,26.23
2018-03-04T12:44:18.604Z,27.90
2018-03-04T12:46:46.356Z,28.33
2018-03-04T12:49:14.166Z,26.97
2018-03-04T12:51:41.964Z,29.10
2018-03-04T12:54:09.763Z,30.47
2018-03-04T12:56:37.577Z,25.67
2018-03-04T12:59:05.298Z,27.30
2018-03-04T13:01:33.053Z,27.17
2018-03-04T13:04:00.794Z,26.70
2018-03-04T13:06:28.575Z,26.60
2018-03-04T13:08:56.383Z,30.13
2018-03-04T13:11:24.174Z,27.13
2018-03-04T13:13:51.969Z,28.80
2018-03-04T13:16:19.740Z,30.73
2018-03-04T13:18:47.478Z,31.30
2018-03-04T13:21:15.223Z,30.73
2018-03-04T13:23:42.978Z,34.37
2018-03-04T13:26:10.833Z,32.00
2018-03-04T13:28:38.562Z,35.60
2018-03-04T13:31:06.278Z,34.60
2018-03-04T13:33:34.030Z,35.70
2018-03-04T13:36:01.826Z,32.30
2018-03-04T13:38:29.658Z,35.87
2018-03-04T13:40:57.412Z,38.60
2018-03-04T13:43:25.156Z,38.27
2018-03-04T13:45:52.883Z,34.90
2018-03-04T13:48:20.634Z,32.93
2018-03-04T13:50:48.398Z,33.97
2018-03-04T13:53:16.216Z,31.80
2018-03-04T13:55:43.949Z,35.30
2018-03-04T13:58:11.736Z,35.50
2018-03-04T14:00:39.458Z,33.20
2018-03-04T14:03:07.192Z,33.33
2018-03-04T14:05:34.941Z,31.77
2018-03-04T14:08:02.744Z,34.77
2018-03-04T14:10:30.599Z,34.70
2018-03-04T14:12:58.383Z,36.00
2018-03-04T14:15:26.125Z,35.30
2018-03-04T14:17:53.872Z,35.87
2018-03-04T14:20:22.373Z,34.77
2018-03-04T14:22:50.108Z,38.40
2018-03-04T14:25:17.986Z,34.80
2018-03-04T14:27:45.788Z,32.30
2018-03-04T14:30:13.570Z,36.50
2018-03-04T14:32:41.369Z,36.80
2018-03-04T14:35:09.152Z,33.90
2018-03-04T14:37:37.697Z,33.50
2018-03-04T14:40:05.559Z,35.00
2018-03-04T14:42:33.352Z,36.60
2018-03-04T14:45:01.297Z,35.20
2018-03-04T14:47:30.168Z,35.13
2018-03-04T14:49:58.197Z,35.20
2018-03-04T14:52:26.234Z,34.87
2018-03-04T14:54:54.272Z,36.93
2018-03-04T14:57:22.015Z,38.80
2018-03-04T14:59:49.919Z,37.40
2018-03-04T15:02:18.091Z,38.07
2018-03-04T15:04:46.208Z,36.83
2018-03-04T15:07:13.981Z,34.80
2018-03-04T15:09:41.728Z,37.57
2018-03-04T15:12:15.957Z,35.80
2018-03-04T15:14:44.062Z,34.97
2018-03-04T15:17:12.615Z,34.47
2018-03-04T15:19:40.465Z,37.27
2018-03-04T15:22:08.295Z,37.67
2018-03-04T15:24:36.030Z,34.83
2018-03-04T15:27:05.038Z,38.20
2018-03-04T15:29:33.223Z,39.50
2018-03-04T15:32:01.991Z,37.10
2018-03-04T15:34:29.812Z,39.10
2018-03-04T15:36:57.557Z,37.97
2018-03-04T15:39:25.346Z,37.40
2018-03-04T15:41:53.485Z,34.23
2018-03-04T15:44:22.259Z,38.23
2018-03-04T15:46:50.064Z,39.50
2018-03-04T15:49:17.802Z,40.30
2018-03-04T15:51:45.586Z,37.00
2018-03-04T15:54:13.637Z,37.70
2018-03-04T15:56:41.722Z,38.77
2018-03-04T15:59:09.513Z,40.20
2018-03-04T16:01:37.282Z,40.33
2018-03-04T16:04:05.085Z,40.13
2018-03-04T16:06:33.276Z,40.10
2018-03-04T16:09:01.218Z,40.97
2018-03-04T16:11:28.976Z,44.57
2018-03-04T16:14:09.609Z,38.67
2018-03-04T16:16:37.378Z,40.33
2018-03-04T16:19:05.189Z,37.27
2018-03-04T16:21:32.920Z,37.20
2018-03-04T16:24:00.695Z,39.43
2018-03-04T16:26:33.425Z,39.47
2018-03-04T16:29:01.988Z,38.57
2018-03-04T16:31:29.773Z,37.10
2018-03-04T16:33:57.506Z,35.43
2018-03-04T16:36:25.286Z,39.30
2018-03-04T16:38:53.216Z,39.00
2018-03-04T16:41:21.178Z,38.03
2018-03-04T16:43:48.899Z,39.07
2018-03-04T16:46:23.846Z,37.73
2018-03-04T16:48:51.576Z,37.17
2018-03-04T16:51:19.371Z,38.07
2018-03-04T16:53:47.171Z,39.00
2018-03-04T16:56:15.001Z,38.00
2018-03-04T16:58:42.821Z,40.17
2018-03-04T17:01:11.566Z,39.53
2018-03-04T17:03:39.296Z,36.87
2018-03-04T17:06:07.870Z,37.63
2018-03-04T17:08:35.618Z,39.33
2018-03-04T17:11:03.506Z,36.47
2018-03-04T17:13:32.022Z,37.47
2018-03-04T17:15:59.814Z,38.40
2018-03-04T17:18:27.773Z,37.20
2018-03-04T17:20:55.596Z,37.33
2018-03-04T17:23:23.397Z,38.40
2018-03-04T17:25:51.179Z,37.47
2018-03-04T17:28:19.016Z,37.90
2018-03-04T17:30:46.755Z,39.93
2018-03-04T17:33:14.544Z,38.03
2018-03-04T17:35:42.294Z,41.07
2018-03-04T17:38:10.015Z,42.33
2018-03-04T17:40:37.749Z,40.50
2018-03-04T17:43:05.662Z,41.53
2018-03-04T17:45:33.434Z,40.47
2018-03-04T17:48:01.234Z,42.07
2018-03-04T17:50:29.727Z,41.70
2018-03-04T17:52:57.494Z,40.60
2018-03-04T17:55:25.359Z,41.67
2018-03-04T17:57:53.125Z,42.73
2018-03-04T18:00:20.918Z,43.47
2018-03-04T18:02:48.744Z,41.60
2018-03-04T18:05:16.548Z,43.17
2018-03-04T18:07:44.329Z,41.00
2018-03-04T18:10:12.115Z,45.00
2018-03-04T18:12:40.072Z,44.00
2018-03-04T18:15:09.101Z,43.80
2018-03-04T18:17:37.010Z,47.57
2018-03-04T18:20:04.824Z,47.77
2018-03-04T18:22:32.619Z,45.10
2018-03-04T18:25:01.280Z,47.90
2018-03-04T18:27:29.102Z,45.67
2018-03-04T18:29:57.294Z,48.50
2018-03-04T18:32:25.208Z,46.60
2018-03-04T18:34:52.981Z,47.13
2018-03-04T18:37:21.263Z,42.87
2018-03-04T18:39:49.496Z,44.83
2018-03-04T18:42:21.225Z,45.67
2018-03-04T18:45:05.208Z,46.97
2018-03-04T18:47:33.035Z,44.03
2018-03-04T18:50:00.787Z,46.22
2018-03-04T18:52:28.979Z,47.50
2018-03-04T18:54:57.849Z,49.40
2018-03-04T18:57:25.732Z,47.57
2018-03-04T18:59:54.301Z,47.47
2018-03-04T19:02:29.656Z,46.03
2018-03-04T19:05:03.021Z,47.17
2018-03-04T19:07:30.884Z,46.97
2018-03-04T19:09:58.637Z,46.00
2018-03-04T19:12:26.443Z,48.23
2018-03-04T19:14:54.238Z,43.53
2018-03-04T19:17:22.771Z,44.77
2018-03-04T19:19:50.565Z,50.37
2018-03-04T19:22:18.317Z,50.57
2018-03-04T19:24:46.058Z,45.30
2018-03-04T19:27:14.003Z,48.27
2018-03-04T19:29:41.749Z,41.93
2018-03-04T19:32:11.113Z,48.60
2018-03-04T19:34:39.175Z,46.10
2018-03-04T19:37:08.095Z,50.53
2018-03-04T19:39:36.586Z,45.50
2018-03-04T19:42:05.647Z,48.53
2018-03-04T19:44:34.356Z,46.30
2018-03-04T19:47:03.677Z,48.07
2018-03-04T19:49:33.588Z,48.70
2018-03-04T19:52:01.468Z,48.47
2018-03-04T19:54:31.193Z,49.40
2018-03-04T19:56:59.860Z,47.43
2018-03-04T19:59:28.340Z,45.40
2018-03-04T20:01:57.954Z,43.20
2018-03-04T20:04:26.717Z,43.00
2018-03-04T20:06:55.937Z,44.33
2018-03-04T20:09:23.843Z,45.47
2018-03-04T20:11:53.186Z,42.50
2018-03-04T20:14:21.018Z,44.17
2018-03-04T20:16:49.572Z,46.93
2018-03-04T20:19:19.318Z,45.83
2018-03-04T20:21:47.130Z,42.27
2018-03-04T20:24:15.224Z,40.93
2018-03-04T20:26:43.898Z,41.00
2018-03-04T20:29:13.016Z,42.07
2018-03-04T20:31:42.330Z,43.10
2018-03-04T20:34:11.928Z,43.23
2018-03-04T20:36:43.238Z,44.63
2018-03-04T20:39:10.982Z,43.90
2018-03-04T20:41:38.777Z,47.70
2018-03-04T20:44:06.595Z,44.00
2018-03-04T20:46:34.656Z,46.60
2018-03-04T20:49:02.447Z,45.17
2018-03-04T20:51:30.193Z,43.80
2018-03-04T20:54:00.893Z,42.47
2018-03-04T20:56:28.699Z,44.40
2018-03-04T20:58:57.530Z,40.33
2018-03-04T21:01:25.284Z,39.97
2018-03-04T21:03:54.354Z,39.60
2018-03-04T21:06:24.361Z,42.33
2018-03-04T21:08:53.082Z,42.87
2018-03-04T21:11:20.824Z,41.10
2018-03-04T21:13:48.602Z,41.67
2018-03-04T21:16:16.630Z,39.47
2018-03-04T21:18:46.058Z,39.07
2018-03-04T21:21:15.469Z,37.17
2018-03-04T21:23:44.361Z,38.73
2018-03-04T21:26:12.135Z,42.60
2018-03-04T21:28:39.962Z,41.10
2018-03-04T21:31:07.806Z,41.77
2018-03-04T21:33:35.636Z,37.50
2018-03-04T21:36:03.457Z,38.53
2018-03-04T21:38:31.229Z,36.07
2018-03-04T21:40:59.186Z,35.57
2018-03-04T21:43:26.973Z,36.70
2018-03-04T21:45:54.730Z,34.97
2018-03-04T21:48:22.535Z,35.57
2018-03-04T21:50:50.290Z,36.33
2018-03-04T21:53:18.068Z,33.87
2018-03-04T21:55:45.835Z,32.27
2018-03-04T21:58:13.623Z,34.97
2018-03-04T22:00:41.434Z,32.80
2018-03-04T22:03:09.238Z,30.47
2018-03-04T22:05:37.064Z,33.40
2018-03-04T22:08:04.846Z,31.17
2018-03-04T22:10:32.617Z,33.63
2018-03-04T22:13:00.418Z,35.07
2018-03-04T22:15:28.227Z,35.93
2018-03-04T22:17:55.987Z,38.83
2018-03-04T22:20:23.777Z,41.37
2018-03-04T22:22:51.514Z,41.10
2018-03-04T22:25:19.310Z,41.67
2018-03-04T22:27:47.074Z,37.90
2018-03-04T22:30:14.809Z,37.90
2018-03-04T22:32:42.537Z,39.47
2018-03-04T22:35:10.311Z,38.70
2018-03-04T22:37:38.074Z,38.33
2018-03-04T22:40:05.866Z,37.93
2018-03-04T22:42:33.653Z,39.10
2018-03-04T22:45:01.379Z,38.40
2018-03-04T22:47:29.151Z,40.80
2018-03-04T22:49:56.893Z,38.63
2018-03-04T22:52:24.641Z,36.40
2018-03-04T22:54:52.446Z,36.43
2018-03-04T22:57:20.236Z,37.27
2018-03-04T22:59:47.988Z,39.87
2018-03-04T23:02:15.725Z,41.17
2018-03-04T23:04:43.460Z,40.33
2018-03-04T23:07:11.196Z,46.30
2018-03-04T23:09:39.753Z,40.97
2018-03-04T23:12:07.586Z,45.67
2018-03-04T23:14:35.370Z,42.87
2018-03-04T23:17:03.108Z,42.13
2018-03-04T23:19:30.888Z,40.33
2018-03-04T23:21:58.711Z,37.10
2018-03-04T23:24:26.508Z,36.80
2018-03-04T23:26:54.286Z,44.03
2018-03-04T23:29:22.016Z,37.43
2018-03-04T23:31:50.531Z,39.10
2018-03-04T23:34:18.310Z,34.57
2018-03-04T23:36:46.098Z,34.83
2018-03-04T23:39:13.886Z,33.33
2018-03-04T23:41:41.637Z,34.97
2018-03-04T23:44:09.429Z,31.50
2018-03-04T23:46:37.246Z,32.20
2018-03-04T23:49:05.012Z,34.00
2018-03-04T23:51:32.782Z,30.63
2018-03-04T23:54:00.607Z,34.03
2018-03-04T23:56:29.101Z,30.70
2018-03-04T23:58:57.657Z,29.20
